Time;durP1;ratioP1;P1;durP2;ratioP2;P2;SDS_P1;SDS_P2;PMS_P1;PMS_P2;Temp;Humidity;BMP_temperature;BMP_pressure;BME280_temperature;BME280_humidity;BME280_pressure;Samples;Min_cycle;Max_cycle;Signal;HPM_P1;HPM_P2
2022/12/22 03:25:53;;;;;;;0.20;0.10;;;;;;;;;;5067790;28;20040;-85
2022/12/22 03:28:25;;;;;;;0.20;0.10;;;;;;;;;;5047849;28;20043;-84
2022/12/22 03:30:55;;;;;;;0.20;0.10;;;;;;;;;;5091132;22;20074;-87
2022/12/22 03:33:21;;;;;;;0.20;0.00;;;;;;;;;;5094100;27;20054;-87
2022/12/22 03:35:47;;;;;;;0.20;0.10;;;;;;;;;;5110686;27;20047;-86
2022/12/22 03:38:13;;;;;;;0.20;0.10;;;;;;;;;;5095545;27;20191;-89
2022/12/22 03:40:40;;;;;;;0.20;0.10;;;;;;;;;;5096760;28;20871;-87
2022/12/22 03:49:08;;;;;;;0.20;0.10;;;;;;;;;;5050882;28;20524;-85
2022/12/22 03:51:43;;;;;;;0.20;0.05;;;;;;;;;;5099572;28;20032;-88
2022/12/22 03:54:27;;;;;;;0.20;0.10;;;;;;;;;;5095425;28;20047;-88
2022/12/22 03:56:56;;;;;;;0.20;0.10;;;;;;;;;;5065856;28;20043;-89
2022/12/22 03:59:22;;;;;;;0.20;0.17;;;;;;;;;;5068366;28;20032;-88
2022/12/22 04:01:50;;;;;;;0.20;0.10;;;;;;;;;;5066125;28;20059;-88
2022/12/22 04:04:21;;;;;;;0.20;0.10;;;;;;;;;;5082046;28;20051;-87
2022/12/22 04:16:14;;;;;;;0.20;0.10;;;;;;;;;;5069807;28;20110;-89
2022/12/22 04:18:43;;;;;;;0.20;0.10;;;;;;;;;;5052020;28;20040;-90
2022/12/22 04:21:09;;;;;;;0.20;0.10;;;;;;;;;;5070326;28;20040;-88
2022/12/22 04:23:35;;;;;;;0.20;0.05;;;;;;;;;;5075308;22;20069;-84
2022/12/22 04:26:01;;;;;;;0.20;0.10;;;;;;;;;;5076588;28;20165;-83
2022/12/22 04:28:27;;;;;;;0.20;0.10;;;;;;;;;;5061500;28;20505;-84
2022/12/22 04:30:53;;;;;;;0.20;0.10;;;;;;;;;;5039126;28;20048;-84
2022/12/22 04:33:20;;;;;;;0.20;0.10;;;;;;;;;;5062071;28;20036;-84
2022/12/22 04:35:46;;;;;;;0.20;0.10;;;;;;;;;;5043469;28;20043;-83
2022/12/22 04:38:12;;;;;;;0.20;0.10;;;;;;;;;;5068407;28;20044;-83
2022/12/22 04:40:38;;;;;;;0.20;0.10;;;;;;;;;;5070340;28;20036;-83
2022/12/22 04:43:04;;;;;;;0.20;0.10;;;;;;;;;;5083641;28;20099;-83
2022/12/22 04:45:30;;;;;;;0.20;0.10;;;;;;;;;;5087230;28;20040;-83
2022/12/22 04:47:56;;;;;;;0.20;0.10;;;;;;;;;;5065884;28;20183;-83
2022/12/22 04:50:22;;;;;;;0.20;0.10;;;;;;;;;;5088462;28;20036;-83
2022/12/22 04:52:48;;;;;;;0.20;0.10;;;;;;;;;;5050140;28;20474;-83
2022/12/22 04:55:14;;;;;;;0.20;0.10;;;;;;;;;;5044440;28;20047;-83
2022/12/22 04:57:40;;;;;;;0.20;0.10;;;;;;;;;;5063633;28;20686;-83
2022/12/22 05:00:07;;;;;;;0.20;0.10;;;;;;;;;;5067324;28;20040;-83
2022/12/22 05:02:33;;;;;;;0.20;0.10;;;;;;;;;;5068178;28;20043;-83
2022/12/22 05:04:59;;;;;;;0.20;0.10;;;;;;;;;;5065687;28;20027;-83
2022/12/22 05:07:25;;;;;;;0.20;0.20;;;;;;;;;;5066496;28;20568;-83
2022/12/22 05:09:51;;;;;;;0.20;0.10;;;;;;;;;;5069439;28;20028;-83
2022/12/22 05:15:01;;;;;;;0.20;0.20;;;;;;;;;;5062363;28;20040;-84
2022/12/22 05:17:27;;;;;;;0.20;0.10;;;;;;;;;;5046395;28;20472;-84
2022/12/22 05:19:53;;;;;;;0.20;0.10;;;;;;;;;;5053136;28;20040;-84
2022/12/22 05:22:19;;;;;;;0.20;0.10;;;;;;;;;;5051795;28;20051;-84
2022/12/22 05:24:45;;;;;;;0.20;0.10;;;;;;;;;;5068244;28;20629;-84
2022/12/22 05:27:12;;;;;;;0.20;0.10;;;;;;;;;;5041561;28;20042;-83
2022/12/22 05:29:38;;;;;;;0.20;0.10;;;;;;;;;;5066033;28;20036;-84
2022/12/22 05:32:04;;;;;;;0.20;0.10;;;;;;;;;;5060600;28;20093;-83
2022/12/22 05:34:30;;;;;;;0.20;0.10;;;;;;;;;;5052326;28;20048;-85
2022/12/22 05:36:56;;;;;;;0.20;0.10;;;;;;;;;;5077548;28;20040;-85
2022/12/22 05:39:22;;;;;;;0.20;0.10;;;;;;;;;;5061952;28;20370;-84
2022/12/22 05:41:48;;;;;;;0.20;0.13;;;;;;;;;;5062963;28;20036;-84
2022/12/22 05:44:14;;;;;;;0.30;0.20;;;;;;;;;;5085068;28;20035;-85
2022/12/22 05:46:40;;;;;;;0.20;0.10;;;;;;;;;;5047958;28;20042;-84
2022/12/22 05:49:06;;;;;;;0.20;0.10;;;;;;;;;;5051728;28;20132;-84
2022/12/22 05:51:32;;;;;;;0.20;0.10;;;;;;;;;;5047268;28;20052;-83
2022/12/22 05:53:58;;;;;;;0.20;0.10;;;;;;;;;;5048327;28;20044;-83
2022/12/22 05:56:24;;;;;;;0.20;0.10;;;;;;;;;;5060651;28;20121;-83
2022/12/22 05:58:50;;;;;;;0.20;0.10;;;;;;;;;;5046187;28;20119;-83
2022/12/22 06:01:16;;;;;;;0.20;0.10;;;;;;;;;;5064418;28;20071;-83
2022/12/22 06:03:42;;;;;;;0.20;0.10;;;;;;;;;;5059362;28;20032;-83
2022/12/22 06:06:08;;;;;;;0.20;0.10;;;;;;;;;;5051416;28;20040;-83
2022/12/22 06:08:34;;;;;;;0.20;0.10;;;;;;;;;;5054074;28;20047;-83
2022/12/22 06:11:00;;;;;;;0.20;0.10;;;;;;;;;;5043584;28;20059;-83
2022/12/22 06:13:26;;;;;;;0.20;0.10;;;;;;;;;;5058555;28;20581;-83
2022/12/22 06:15:52;;;;;;;0.20;0.10;;;;;;;;;;5055885;28;20044;-83
2022/12/22 06:18:18;;;;;;;0.20;0.10;;;;;;;;;;5057186;28;20036;-83
2022/12/22 06:20:47;;;;;;;0.20;0.10;;;;;;;;;;5041310;28;20101;-83
2022/12/22 06:23:13;;;;;;;0.20;0.10;;;;;;;;;;5052192;28;20059;-83
2022/12/22 06:25:39;;;;;;;0.20;0.10;;;;;;;;;;5041288;28;20566;-82
2022/12/22 06:28:05;;;;;;;0.20;0.10;;;;;;;;;;5039058;28;20694;-84
2022/12/22 06:30:31;;;;;;;0.20;0.10;;;;;;;;;;5059475;28;20103;-82
2022/12/22 06:32:59;;;;;;;0.20;0.10;;;;;;;;;;5066203;28;20034;-83
2022/12/22 06:35:25;;;;;;;0.20;0.10;;;;;;;;;;5072006;28;20896;-84
2022/12/22 06:37:51;;;;;;;0.20;0.10;;;;;;;;;;5061065;28;20054;-83
2022/12/22 06:40:17;;;;;;;0.20;0.10;;;;;;;;;;5044949;28;20272;-84
2022/12/22 06:45:27;;;;;;;0.20;0.10;;;;;;;;;;5075609;28;20101;-85
2022/12/22 06:47:53;;;;;;;0.20;0.10;;;;;;;;;;5064104;28;20517;-84
2022/12/22 06:50:19;;;;;;;0.20;0.10;;;;;;;;;;5049147;28;20039;-83
2022/12/22 06:52:45;;;;;;;0.20;0.05;;;;;;;;;;5087082;28;20502;-83
2022/12/22 06:55:11;;;;;;;0.20;0.10;;;;;;;;;;5069126;28;20429;-84
2022/12/22 06:57:37;;;;;;;0.20;0.10;;;;;;;;;;5045529;28;20037;-84
2022/12/22 07:00:04;;;;;;;0.20;0.10;;;;;;;;;;5080197;28;20047;-84
2022/12/22 07:02:30;;;;;;;0.20;0.10;;;;;;;;;;5047246;28;20039;-84
2022/12/22 07:04:56;;;;;;;0.20;0.10;;;;;;;;;;5046530;28;20043;-84
2022/12/22 07:07:22;;;;;;;0.20;0.10;;;;;;;;;;5034673;28;20040;-84
2022/12/22 07:09:48;;;;;;;0.20;0.10;;;;;;;;;;5065652;28;20525;-84
2022/12/22 07:12:14;;;;;;;0.20;0.10;;;;;;;;;;5044596;28;21567;-84
2022/12/22 07:14:40;;;;;;;0.20;0.15;;;;;;;;;;5043818;28;20486;-84
2022/12/22 07:17:07;;;;;;;0.20;0.08;;;;;;;;;;5048639;28;20158;-84
2022/12/22 07:19:34;;;;;;;0.20;0.10;;;;;;;;;;5060974;28;20042;-85
2022/12/22 07:22:02;;;;;;;0.20;0.10;;;;;;;;;;5060679;28;20056;-84
2022/12/22 07:24:28;;;;;;;0.20;0.10;;;;;;;;;;5064507;28;20033;-84
2022/12/22 07:26:55;;;;;;;0.20;0.20;;;;;;;;;;5067564;28;20506;-84
2022/12/22 07:29:21;;;;;;;0.25;0.25;;;;;;;;;;5042860;28;20124;-84
2022/12/22 07:31:47;;;;;;;0.20;0.10;;;;;;;;;;5050275;28;20130;-84
2022/12/22 07:34:13;;;;;;;0.20;0.10;;;;;;;;;;5047127;28;20405;-84
2022/12/22 07:36:39;;;;;;;0.20;0.10;;;;;;;;;;5062828;28;20051;-84
2022/12/22 07:39:05;;;;;;;0.20;0.10;;;;;;;;;;5048459;28;20563;-84
2022/12/22 07:44:15;;;;;;;0.20;0.10;;;;;;;;;;5083001;28;20036;-83
2022/12/22 07:46:41;;;;;;;0.20;0.10;;;;;;;;;;5060291;28;20089;-84
2022/12/22 07:51:55;;;;;;;0.20;0.10;;;;;;;;;;5063242;28;20044;-84
2022/12/22 07:54:21;;;;;;;0.20;0.10;;;;;;;;;;5048927;28;20043;-84
2022/12/22 07:56:47;;;;;;;0.22;0.20;;;;;;;;;;5060664;28;20032;-83
2022/12/22 07:59:13;;;;;;;0.20;0.10;;;;;;;;;;5060760;28;20100;-83
2022/12/22 08:01:40;;;;;;;0.20;0.10;;;;;;;;;;5057869;28;20036;-83
2022/12/22 08:04:06;;;;;;;0.20;0.10;;;;;;;;;;5044591;28;20083;-83
2022/12/22 08:06:33;;;;;;;0.20;0.10;;;;;;;;;;5061552;28;20050;-84
2022/12/22 08:08:59;;;;;;;0.20;0.10;;;;;;;;;;5047999;28;20040;-83
2022/12/22 08:11:25;;;;;;;0.20;0.10;;;;;;;;;;5076337;28;20520;-83
2022/12/22 08:13:51;;;;;;;0.20;0.10;;;;;;;;;;5062373;28;20050;-84
2022/12/22 08:16:19;;;;;;;0.20;0.10;;;;;;;;;;5062308;28;20068;-83
2022/12/22 08:18:45;;;;;;;0.20;0.10;;;;;;;;;;5062546;28;20040;-83
2022/12/22 08:21:11;;;;;;;0.20;0.10;;;;;;;;;;5060224;28;20052;-84
2022/12/22 08:23:37;;;;;;;0.20;0.10;;;;;;;;;;5045499;28;20032;-83
2022/12/22 08:26:07;;;;;;;0.20;0.10;;;;;;;;;;5064675;28;20043;-83
2022/12/22 08:28:36;;;;;;;0.20;0.10;;;;;;;;;;5062352;28;20048;-83
2022/12/22 08:31:05;;;;;;;0.20;0.10;;;;;;;;;;5050222;28;20044;-83
2022/12/22 08:33:31;;;;;;;0.20;0.10;;;;;;;;;;5044051;28;20106;-84
2022/12/22 08:35:58;;;;;;;0.20;0.10;;;;;;;;;;5062612;28;20046;-83
2022/12/22 08:38:24;;;;;;;0.20;0.10;;;;;;;;;;5058306;28;20059;-83
2022/12/22 08:40:50;;;;;;;0.20;0.10;;;;;;;;;;5043235;28;20074;-83
2022/12/22 08:43:17;;;;;;;0.20;0.10;;;;;;;;;;5043680;28;20122;-83
2022/12/22 08:45:43;;;;;;;0.45;0.10;;;;;;;;;;5063871;28;20051;-83
2022/12/22 08:48:09;;;;;;;0.20;0.10;;;;;;;;;;5046431;28;20623;-84
2022/12/22 08:50:36;;;;;;;0.20;0.10;;;;;;;;;;5046444;28;20036;-83
2022/12/22 08:53:02;;;;;;;0.20;0.10;;;;;;;;;;5061982;28;20508;-84
2022/12/22 08:55:28;;;;;;;0.20;0.10;;;;;;;;;;5046700;28;20417;-84
2022/12/22 08:57:54;;;;;;;0.20;0.10;;;;;;;;;;5061337;28;20063;-83
2022/12/22 09:00:21;;;;;;;0.20;0.10;;;;;;;;;;5081912;28;20048;-83
2022/12/22 09:02:47;;;;;;;0.20;0.10;;;;;;;;;;5049883;28;20118;-84
2022/12/22 09:05:13;;;;;;;0.20;0.10;;;;;;;;;;5062842;28;20032;-84
2022/12/22 09:07:40;;;;;;;0.20;0.10;;;;;;;;;;5045431;28;20059;-83
2022/12/22 09:10:08;;;;;;;0.20;0.10;;;;;;;;;;5039048;28;20566;-84
2022/12/22 09:12:37;;;;;;;0.20;0.10;;;;;;;;;;5074478;28;20039;-84
2022/12/22 09:15:08;;;;;;;0.20;0.10;;;;;;;;;;5042331;28;20034;-83
2022/12/22 09:17:35;;;;;;;0.20;0.10;;;;;;;;;;5062285;28;20040;-84
2022/12/22 09:20:03;;;;;;;0.20;0.10;;;;;;;;;;5063821;28;20090;-82
2022/12/22 09:22:29;;;;;;;0.20;0.05;;;;;;;;;;5061963;28;20036;-85
2022/12/22 09:24:55;;;;;;;0.20;0.10;;;;;;;;;;5058498;28;20036;-84
2022/12/22 09:27:24;;;;;;;0.20;0.10;;;;;;;;;;5060684;28;20071;-84
2022/12/22 09:29:56;;;;;;;0.20;0.10;;;;;;;;;;5043604;28;20043;-83
2022/12/22 09:32:22;;;;;;;0.30;0.20;;;;;;;;;;5080197;28;20244;-85
2022/12/22 09:34:48;;;;;;;0.20;0.10;;;;;;;;;;5045313;28;20040;-83
2022/12/22 09:37:15;;;;;;;0.20;0.10;;;;;;;;;;5060004;28;20121;-84
2022/12/22 09:39:41;;;;;;;0.20;0.10;;;;;;;;;;5081135;28;20472;-84
2022/12/22 09:42:14;;;;;;;0.45;0.30;;;;;;;;;;5060588;28;20225;-85
2022/12/22 09:44:54;;;;;;;0.20;0.10;;;;;;;;;;5054041;28;20372;-84
2022/12/22 09:47:37;;;;;;;0.20;0.17;;;;;;;;;;5057733;28;20044;-85
2022/12/22 09:50:04;;;;;;;0.20;0.10;;;;;;;;;;5082436;28;20106;-84
2022/12/22 09:52:43;;;;;;;0.20;0.13;;;;;;;;;;5044050;28;20039;-84
2022/12/22 09:55:32;;;;;;;0.30;0.20;;;;;;;;;;5034874;28;20341;-84
2022/12/22 09:58:11;;;;;;;0.20;0.10;;;;;;;;;;5064672;28;20057;-87
2022/12/22 10:00:47;;;;;;;0.20;0.10;;;;;;;;;;5067965;28;20036;-84
2022/12/22 10:03:43;;;;;;;0.20;0.10;;;;;;;;;;5064561;28;20043;-86
2022/12/22 10:06:26;;;;;;;0.20;0.10;;;;;;;;;;5060675;28;20303;-85
2022/12/22 10:08:53;;;;;;;0.20;0.10;;;;;;;;;;5064622;28;20737;-85
2022/12/22 10:11:22;;;;;;;0.20;0.10;;;;;;;;;;5065503;28;20044;-86
2022/12/22 10:13:56;;;;;;;0.20;0.10;;;;;;;;;;5046766;28;20043;-86
2022/12/22 10:16:24;;;;;;;0.20;0.10;;;;;;;;;;5037001;28;20135;-84
2022/12/22 10:19:10;;;;;;;0.20;0.10;;;;;;;;;;5045751;28;20040;-83
2022/12/22 10:21:42;;;;;;;0.20;0.10;;;;;;;;;;5081913;28;20028;-85
2022/12/22 10:24:16;;;;;;;0.20;0.10;;;;;;;;;;5075696;22;20032;-81
2022/12/22 10:26:42;;;;;;;0.28;0.25;;;;;;;;;;5037490;28;20037;-86
2022/12/22 10:29:10;;;;;;;0.20;0.10;;;;;;;;;;5074989;28;20447;-87
2022/12/22 10:31:38;;;;;;;2.72;0.75;;;;;;;;;;5077364;28;20036;-86
2022/12/22 10:34:15;;;;;;;0.20;0.10;;;;;;;;;;5052331;28;20040;-86
2022/12/22 10:36:46;;;;;;;0.43;0.28;;;;;;;;;;5059562;28;20072;-86
2022/12/22 10:39:21;;;;;;;0.20;0.10;;;;;;;;;;5056494;28;20498;-87
2022/12/22 10:41:48;;;;;;;0.20;0.10;;;;;;;;;;5042549;28;20554;-86
2022/12/22 10:44:18;;;;;;;0.20;0.10;;;;;;;;;;5056034;28;20042;-87
2022/12/22 10:46:49;;;;;;;0.20;0.10;;;;;;;;;;5030513;28;20032;-86
2022/12/22 10:49:26;;;;;;;0.20;0.10;;;;;;;;;;5053620;28;20452;-88
2022/12/22 10:51:57;;;;;;;0.20;0.10;;;;;;;;;;5044209;28;20044;-86
2022/12/22 10:54:34;;;;;;;0.20;0.20;;;;;;;;;;5035941;28;20618;-86
2022/12/22 10:57:02;;;;;;;0.20;0.10;;;;;;;;;;5059352;28;20516;-87
2022/12/22 10:59:28;;;;;;;0.20;0.10;;;;;;;;;;5052036;28;20060;-86
2022/12/22 11:02:14;;;;;;;0.20;0.10;;;;;;;;;;5047275;28;20581;-88
2022/12/22 11:04:47;;;;;;;0.38;0.38;;;;;;;;;;5042524;28;20463;-87
2022/12/22 11:07:13;;;;;;;;;;;;;;;;;;5040204;28;20043;-88
2022/12/22 11:09:39;;;;;;;0.20;0.10;;;;;;;;;;5054226;28;20345;-84
2022/12/22 11:12:17;;;;;;;0.20;0.10;;;;;;;;;;5054835;28;20462;-86
2022/12/22 11:14:44;;;;;;;0.20;0.10;;;;;;;;;;5054758;28;20439;-87
2022/12/22 11:17:17;;;;;;;0.30;0.20;;;;;;;;;;5058314;28;20127;-84
2022/12/22 11:20:04;;;;;;;0.20;0.10;;;;;;;;;;5054720;28;20108;-85
2022/12/22 11:22:39;;;;;;;0.30;0.30;;;;;;;;;;5074879;28;20066;-86
2022/12/22 11:25:05;;;;;;;0.52;0.20;;;;;;;;;;5064454;28;20501;-86
2022/12/22 11:27:37;;;;;;;0.85;0.52;;;;;;;;;;5041183;28;20482;-82
2022/12/22 11:30:18;;;;;;;0.22;0.20;;;;;;;;;;5060569;28;20139;-86
2022/12/22 11:33:02;;;;;;;0.40;0.22;;;;;;;;;;5064941;28;20040;-83
2022/12/22 11:35:48;;;;;;;0.20;0.10;;;;;;;;;;5043124;28;20064;-87
2022/12/22 11:38:21;;;;;;;0.20;0.10;;;;;;;;;;5027217;28;20048;-84
2022/12/22 11:40:51;;;;;;;0.30;0.10;;;;;;;;;;5056108;28;20048;-83
2022/12/22 11:43:36;;;;;;;0.20;0.10;;;;;;;;;;5042684;28;20040;-87
2022/12/22 11:46:17;;;;;;;0.20;0.10;;;;;;;;;;5042599;28;20139;-85
2022/12/22 11:48:55;;;;;;;0.20;0.10;;;;;;;;;;5061101;28;20032;-89
2022/12/22 11:51:24;;;;;;;0.20;0.10;;;;;;;;;;5064266;28;20039;-83
2022/12/22 11:53:50;;;;;;;0.20;0.10;;;;;;;;;;5040999;28;20119;-87
2022/12/22 11:56:20;;;;;;;0.30;0.25;;;;;;;;;;5063880;28;20214;-85
2022/12/22 11:58:57;;;;;;;0.20;0.10;;;;;;;;;;5050907;28;20525;-89
2022/12/22 12:01:48;;;;;;;0.20;0.10;;;;;;;;;;5038292;28;20072;-84
2022/12/22 12:04:29;;;;;;;0.20;0.10;;;;;;;;;;5062548;28;20043;-86
2022/12/22 12:07:17;;;;;;;0.20;0.10;;;;;;;;;;5053677;28;20051;-85
2022/12/22 12:09:43;;;;;;;0.38;0.30;;;;;;;;;;5046275;28;20036;-86
2022/12/22 12:12:09;;;;;;;0.20;0.10;;;;;;;;;;5056459;28;20878;-88
2022/12/22 12:14:35;;;;;;;0.20;0.10;;;;;;;;;;5040940;28;20465;-87
2022/12/22 12:17:19;;;;;;;0.20;0.10;;;;;;;;;;5042684;28;20029;-88
2022/12/22 12:20:00;;;;;;;0.20;0.10;;;;;;;;;;5044509;28;20085;-87
2022/12/22 12:22:53;;;;;;;0.20;0.10;;;;;;;;;;5059303;28;20040;-87
2022/12/22 12:25:22;;;;;;;0.38;0.30;;;;;;;;;;5056569;28;20044;-87
2022/12/22 12:28:07;;;;;;;0.20;0.10;;;;;;;;;;5050367;28;20045;-84
2022/12/22 12:30:39;;;;;;;0.20;0.10;;;;;;;;;;5071093;28;20410;-87
2022/12/22 12:33:13;;;;;;;0.20;0.10;;;;;;;;;;5039845;28;20065;-87
2022/12/22 12:35:42;;;;;;;0.20;0.10;;;;;;;;;;5073406;28;20037;-87
2022/12/22 12:38:31;;;;;;;0.20;0.10;;;;;;;;;;5068516;28;20040;-86
2022/12/22 12:41:06;;;;;;;0.28;0.22;;;;;;;;;;5011012;28;20410;-85
2022/12/22 12:43:33;;;;;;;0.20;0.10;;;;;;;;;;5070234;28;20025;-86
2022/12/22 12:46:18;;;;;;;0.20;0.10;;;;;;;;;;5033708;28;20044;-87
2022/12/22 12:48:49;;;;;;;0.20;0.10;;;;;;;;;;5066157;28;20054;-86
2022/12/22 12:51:34;;;;;;;0.20;0.10;;;;;;;;;;5036368;28;20598;-90
2022/12/22 12:54:39;;;;;;;0.20;0.10;;;;;;;;;;5051568;28;20051;-86
2022/12/22 12:57:24;;;;;;;0.20;0.10;;;;;;;;;;4996722;28;20062;-84
2022/12/22 12:59:51;;;;;;;0.20;0.10;;;;;;;;;;4967349;28;20053;-88
2022/12/22 13:02:26;;;;;;;0.20;0.10;;;;;;;;;;5012936;28;20128;-86
2022/12/22 13:05:11;;;;;;;0.20;0.10;;;;;;;;;;5070949;28;20036;-87
2022/12/22 13:07:55;;;;;;;0.20;0.10;;;;;;;;;;5048638;28;20029;-86
2022/12/22 13:10:23;;;;;;;0.20;0.10;;;;;;;;;;5072737;28;20043;-88
2022/12/22 13:12:50;;;;;;;0.20;0.13;;;;;;;;;;5038792;28;20101;-86
2022/12/22 13:15:26;;;;;;;0.20;0.20;;;;;;;;;;5051364;28;20032;-86
2022/12/22 13:17:52;;;;;;;0.20;0.20;;;;;;;;;;5049871;28;20096;-86
2022/12/22 13:20:33;;;;;;;0.20;0.10;;;;;;;;;;5054137;28;20047;-84
2022/12/22 13:23:00;;;;;;;0.22;0.13;;;;;;;;;;5040750;28;20558;-85
2022/12/22 13:25:32;;;;;;;0.20;0.17;;;;;;;;;;5053803;28;20821;-87
2022/12/22 13:27:58;;;;;;;0.20;0.10;;;;;;;;;;5050011;28;20490;-84
2022/12/22 13:30:26;;;;;;;0.20;0.10;;;;;;;;;;5031504;28;20041;-87
2022/12/22 13:32:53;;;;;;;1.85;0.73;;;;;;;;;;5037720;28;20123;-87
2022/12/22 13:35:21;;;;;;;0.20;0.10;;;;;;;;;;5073417;28;20512;-87
2022/12/22 13:37:49;;;;;;;0.20;0.10;;;;;;;;;;5052814;28;20048;-88
2022/12/22 13:40:22;;;;;;;0.28;0.17;;;;;;;;;;5069130;28;20044;-88
2022/12/22 13:42:50;;;;;;;0.20;0.20;;;;;;;;;;5070503;28;20036;-87
2022/12/22 13:45:34;;;;;;;0.20;0.10;;;;;;;;;;5032403;28;20035;-87
2022/12/22 13:48:11;;;;;;;0.20;0.10;;;;;;;;;;5053813;28;20098;-87
2022/12/22 13:50:57;;;;;;;0.28;0.25;;;;;;;;;;5036016;28;20418;-87
2022/12/22 13:53:29;;;;;;;0.20;0.15;;;;;;;;;;5050530;28;20040;-85
2022/12/22 13:55:57;;;;;;;0.30;0.30;;;;;;;;;;5059735;28;20048;-88
2022/12/22 13:58:34;;;;;;;0.63;0.63;;;;;;;;;;5048044;28;20159;-89
2022/12/22 14:01:09;;;;;;;0.20;0.20;;;;;;;;;;5045042;28;20123;-84
2022/12/22 14:03:36;;;;;;;0.20;0.10;;;;;;;;;;5044684;28;20037;-85
2022/12/22 14:06:02;;;;;;;0.20;0.20;;;;;;;;;;5047168;28;20127;-86
2022/12/22 14:08:32;;;;;;;0.20;0.10;;;;;;;;;;5060076;28;20182;-85
2022/12/22 14:10:58;;;;;;;0.20;0.10;;;;;;;;;;5045554;28;20044;-86
2022/12/22 14:13:28;;;;;;;0.20;0.10;;;;;;;;;;5054521;28;20477;-87
2022/12/22 14:16:01;;;;;;;0.20;0.10;;;;;;;;;;5039290;28;20118;-85
2022/12/22 14:18:28;;;;;;;2.47;0.30;;;;;;;;;;5053657;28;20482;-84
2022/12/22 14:20:54;;;;;;;0.20;0.10;;;;;;;;;;5061335;28;20040;-85
2022/12/22 14:23:26;;;;;;;0.20;0.10;;;;;;;;;;5076048;28;20043;-87
2022/12/22 14:25:53;;;;;;;0.20;0.10;;;;;;;;;;5036603;28;20078;-87
2022/12/22 14:28:19;;;;;;;0.20;0.10;;;;;;;;;;5050858;28;20158;-85
2022/12/22 14:30:48;;;;;;;0.20;0.10;;;;;;;;;;5036501;28;20865;-86
2022/12/22 14:33:31;;;;;;;0.20;0.10;;;;;;;;;;5074739;28;20082;-85
2022/12/22 14:36:19;;;;;;;0.20;0.10;;;;;;;;;;5048370;28;20028;-87
2022/12/22 14:38:54;;;;;;;0.20;0.10;;;;;;;;;;5044100;28;20056;-84
2022/12/22 14:41:42;;;;;;;0.20;0.10;;;;;;;;;;5071890;28;20072;-86
2022/12/22 14:44:22;;;;;;;0.20;0.10;;;;;;;;;;5052429;28;20081;-87
2022/12/22 14:47:06;;;;;;;0.20;0.10;;;;;;;;;;5039340;28;20376;-88
2022/12/22 14:49:33;;;;;;;0.20;0.10;;;;;;;;;;5058346;28;20128;-86
2022/12/22 14:52:06;;;;;;;0.20;0.10;;;;;;;;;;5063436;28;20046;-86
2022/12/22 14:54:32;;;;;;;0.20;0.10;;;;;;;;;;5056260;28;20599;-86
2022/12/22 14:57:04;;;;;;;0.20;0.10;;;;;;;;;;5048948;28;20459;-87
2022/12/22 14:59:31;;;;;;;0.30;0.30;;;;;;;;;;5059757;28;20218;-87
2022/12/22 15:01:58;;;;;;;0.20;0.10;;;;;;;;;;5042452;28;20032;-87
2022/12/22 15:04:24;;;;;;;0.20;0.10;;;;;;;;;;5055163;28;20041;-85
2022/12/22 15:06:50;;;;;;;0.20;0.10;;;;;;;;;;5043806;28;20101;-87
2022/12/22 15:09:16;;;;;;;4.40;1.75;;;;;;;;;;5054323;28;20093;-87
2022/12/22 15:11:42;;;;;;;0.20;0.10;;;;;;;;;;5073716;28;20443;-86
2022/12/22 15:14:14;;;;;;;0.20;0.10;;;;;;;;;;5074186;28;20119;-87
2022/12/22 15:16:43;;;;;;;0.20;0.10;;;;;;;;;;5034293;28;20105;-87
2022/12/22 15:19:17;;;;;;;0.20;0.10;;;;;;;;;;5057013;28;20043;-87
2022/12/22 15:21:43;;;;;;;0.20;0.10;;;;;;;;;;5046161;28;20271;-88
2022/12/22 15:24:16;;;;;;;0.20;0.15;;;;;;;;;;5063035;28;20066;-86
2022/12/22 15:26:43;;;;;;;0.20;0.10;;;;;;;;;;5046667;28;20115;-87
2022/12/22 15:29:09;;;;;;;0.20;0.10;;;;;;;;;;5057850;28;20039;-87
2022/12/22 15:31:36;;;;;;;0.20;0.10;;;;;;;;;;5057161;28;20256;-86
2022/12/22 15:34:18;;;;;;;0.20;0.10;;;;;;;;;;5054851;28;20380;-88
2022/12/22 15:36:44;;;;;;;0.20;0.10;;;;;;;;;;5037872;28;20079;-87
2022/12/22 15:39:35;;;;;;;0.20;0.10;;;;;;;;;;5050849;28;20036;-88
2022/12/22 15:42:01;;;;;;;0.20;0.10;;;;;;;;;;5063914;28;20032;-89
2022/12/22 15:44:29;;;;;;;0.73;0.20;;;;;;;;;;5060545;28;20044;-87
2022/12/22 15:47:04;;;;;;;0.20;0.10;;;;;;;;;;5045706;28;20036;-90
2022/12/22 15:49:32;;;;;;;0.22;0.10;;;;;;;;;;5042798;28;20051;-89
2022/12/22 15:52:01;;;;;;;0.20;0.10;;;;;;;;;;5055071;28;20047;-87
2022/12/22 15:54:27;;;;;;;0.20;0.10;;;;;;;;;;5062194;28;20037;-86
2022/12/22 15:56:54;;;;;;;0.28;0.25;;;;;;;;;;5064829;28;20047;-87
2022/12/22 15:59:27;;;;;;;0.20;0.10;;;;;;;;;;5060617;28;20040;-87
2022/12/22 16:01:56;;;;;;;0.20;0.10;;;;;;;;;;5080276;28;20065;-88
2022/12/22 16:04:23;;;;;;;0.20;0.10;;;;;;;;;;5034878;28;20138;-88
2022/12/22 16:06:49;;;;;;;0.20;0.10;;;;;;;;;;5057047;28;20656;-87
2022/12/22 16:09:19;;;;;;;0.20;0.10;;;;;;;;;;5052889;28;20439;-86
2022/12/22 16:11:46;;;;;;;0.20;0.10;;;;;;;;;;5046295;28;20537;-87
2022/12/22 16:14:15;;;;;;;0.20;0.10;;;;;;;;;;5048774;28;20036;-86
2022/12/22 16:16:41;;;;;;;0.20;0.10;;;;;;;;;;5065530;28;20067;-89
2022/12/22 16:19:25;;;;;;;0.20;0.10;;;;;;;;;;5082551;28;20040;-88
2022/12/22 16:22:09;;;;;;;0.20;0.10;;;;;;;;;;5058036;28;20052;-88
2022/12/22 16:24:38;;;;;;;0.20;0.10;;;;;;;;;;5070696;22;20041;-86
2022/12/22 16:27:04;;;;;;;0.20;0.10;;;;;;;;;;5026424;28;20041;-85
2022/12/22 16:29:30;;;;;;;0.20;0.10;;;;;;;;;;5046462;28;20333;-85
2022/12/22 16:32:17;;;;;;;0.20;0.10;;;;;;;;;;5047104;28;20045;-88
2022/12/22 16:34:45;;;;;;;0.20;0.10;;;;;;;;;;5023820;28;20501;-87
2022/12/22 16:37:12;;;;;;;0.20;0.10;;;;;;;;;;5035509;28;20044;-87
2022/12/22 16:39:38;;;;;;;0.20;0.10;;;;;;;;;;5035190;28;20178;-85
2022/12/22 16:42:04;;;;;;;0.20;0.10;;;;;;;;;;5021389;28;20534;-85
2022/12/22 16:44:30;;;;;;;0.20;0.10;;;;;;;;;;5039017;28;20492;-85
2022/12/22 16:46:57;;;;;;;0.20;0.10;;;;;;;;;;5037075;28;20041;-87
2022/12/22 16:49:23;;;;;;;0.20;0.10;;;;;;;;;;5034842;28;20102;-86
2022/12/22 16:51:51;;;;;;;0.20;0.10;;;;;;;;;;5054469;28;20155;-84
2022/12/22 16:54:19;;;;;;;0.20;0.10;;;;;;;;;;5035105;28;20045;-87
2022/12/22 16:56:46;;;;;;;0.28;0.10;;;;;;;;;;5055360;28;20045;-86
2022/12/22 16:59:12;;;;;;;0.20;0.10;;;;;;;;;;5023927;28;20045;-87
2022/12/22 17:01:50;;;;;;;0.20;0.20;;;;;;;;;;5036273;28;22344;-85
2022/12/22 17:04:22;;;;;;;0.20;0.10;;;;;;;;;;5026659;28;20400;-86
2022/12/22 17:06:52;;;;;;;0.30;0.30;;;;;;;;;;5034808;28;20392;-86
2022/12/22 17:09:20;;;;;;;0.52;0.52;;;;;;;;;;5035277;28;20933;-85
2022/12/22 17:11:49;;;;;;;0.20;0.10;;;;;;;;;;5030727;28;20045;-86
2022/12/22 17:14:25;;;;;;;0.30;0.30;;;;;;;;;;5031689;28;20036;-85
2022/12/22 17:16:52;;;;;;;0.20;0.10;;;;;;;;;;5031518;28;20052;-87
2022/12/22 17:19:27;;;;;;;0.30;0.20;;;;;;;;;;5042301;28;20068;-86
2022/12/22 17:21:55;;;;;;;0.57;0.30;;;;;;;;;;5011065;28;20934;-87
2022/12/22 17:24:22;;;;;;;0.20;0.10;;;;;;;;;;5032790;28;20037;-85
2022/12/22 17:26:48;;;;;;;0.20;0.10;;;;;;;;;;5032212;28;20033;-83
2022/12/22 17:29:19;;;;;;;0.20;0.10;;;;;;;;;;5013781;28;20045;-84
2022/12/22 17:31:46;;;;;;;0.20;0.10;;;;;;;;;;5050165;28;20564;-84
2022/12/22 17:34:17;;;;;;;0.20;0.10;;;;;;;;;;5031210;28;20795;-84
2022/12/22 17:36:44;;;;;;;0.20;0.10;;;;;;;;;;5035709;28;20049;-84
2022/12/22 17:39:14;;;;;;;0.20;0.10;;;;;;;;;;5034258;28;20145;-85
2022/12/22 17:41:41;;;;;;;0.20;0.10;;;;;;;;;;5034275;28;20063;-85
2022/12/22 17:44:12;;;;;;;0.20;0.10;;;;;;;;;;5028290;28;20132;-84
2022/12/22 17:46:38;;;;;;;0.28;0.28;;;;;;;;;;5030507;28;20052;-84
2022/12/22 17:49:04;;;;;;;0.30;0.25;;;;;;;;;;5027533;28;20045;-84
2022/12/22 17:51:30;;;;;;;0.20;0.10;;;;;;;;;;5032081;28;20052;-86
2022/12/22 17:53:59;;;;;;;0.20;0.20;;;;;;;;;;5024333;28;20037;-85
2022/12/22 17:56:26;;;;;;;0.20;0.10;;;;;;;;;;5031837;28;20037;-83
2022/12/22 17:58:52;;;;;;;0.20;0.10;;;;;;;;;;5031035;28;20597;-84
2022/12/22 18:01:19;;;;;;;0.20;0.10;;;;;;;;;;5037805;28;20098;-85
2022/12/22 18:03:45;;;;;;;0.20;0.10;;;;;;;;;;5015417;28;20049;-84
2022/12/22 18:06:12;;;;;;;0.20;0.10;;;;;;;;;;5018771;28;20037;-84
2022/12/22 18:08:38;;;;;;;0.20;0.10;;;;;;;;;;5025981;28;20068;-85
2022/12/22 18:11:07;;;;;;;0.20;0.10;;;;;;;;;;5038711;28;20597;-84
2022/12/22 18:13:34;;;;;;;0.20;0.10;;;;;;;;;;5032214;28;20060;-85
2022/12/22 18:16:02;;;;;;;0.20;0.10;;;;;;;;;;5021131;28;20056;-84
2022/12/22 18:18:28;;;;;;;0.20;0.10;;;;;;;;;;5038359;28;20515;-85
2022/12/22 18:20:54;;;;;;;0.20;0.10;;;;;;;;;;5035083;28;20553;-87
2022/12/22 18:23:31;;;;;;;0.20;0.10;;;;;;;;;;5038926;28;20475;-85
2022/12/22 18:26:07;;;;;;;1.42;0.30;;;;;;;;;;5024084;28;20076;-86
2022/12/22 18:28:33;;;;;;;0.20;0.10;;;;;;;;;;5036857;28;20084;-85
2022/12/22 18:31:09;;;;;;;0.20;0.10;;;;;;;;;;5039771;28;20040;-85
2022/12/22 18:33:35;;;;;;;0.32;0.20;;;;;;;;;;5022396;28;20048;-86
2022/12/22 18:36:02;;;;;;;0.20;0.10;;;;;;;;;;5018751;28;20767;-85
2022/12/22 18:38:29;;;;;;;0.20;0.10;;;;;;;;;;5022517;28;20551;-87
2022/12/22 18:41:04;;;;;;;0.20;0.10;;;;;;;;;;5022142;28;20103;-87
2022/12/22 18:43:30;;;;;;;0.20;0.10;;;;;;;;;;5038262;28;20057;-86
2022/12/22 18:45:56;;;;;;;0.20;0.10;;;;;;;;;;5025558;28;20519;-87
2022/12/22 18:48:22;;;;;;;0.20;0.10;;;;;;;;;;5025126;28;20105;-84
2022/12/22 18:50:53;;;;;;;0.28;0.20;;;;;;;;;;5040778;28;20052;-87